createdAt,value
2023-04-20T00:02:03.407Z,33.10
2023-04-20T00:04:36.772Z,32.99
2023-04-20T00:07:08.901Z,33.49
2023-04-20T00:09:40.947Z,33.59
2023-04-20T00:12:13.251Z,33.31
2023-04-20T00:14:45.186Z,33.44
2023-04-20T00:17:17.408Z,33.36
2023-04-20T00:19:49.612Z,33.27
2023-04-20T00:22:21.825Z,33.12
2023-04-20T00:24:54.139Z,33.47
2023-04-20T00:27:26.154Z,33.64
2023-04-20T00:29:58.139Z,33.77
2023-04-20T00:32:30.596Z,34.15
2023-04-20T00:35:02.670Z,34.00
2023-04-20T00:37:34.788Z,34.16
2023-04-20T00:40:07.915Z,34.49
2023-04-20T00:42:41.605Z,34.61
2023-04-20T00:45:13.802Z,34.67
2023-04-20T00:47:49.255Z,35.10
2023-04-20T00:50:23.203Z,34.95
2023-04-20T00:52:55.641Z,35.09
2023-04-20T00:55:29.482Z,34.94
2023-04-20T00:58:03.891Z,34.87
2023-04-20T01:00:37.704Z,34.80
2023-04-20T01:03:13.790Z,34.89
2023-04-20T01:05:49.130Z,35.01
2023-04-20T01:08:22.956Z,35.09
2023-04-20T01:10:57.430Z,35.08
2023-04-20T01:13:29.628Z,35.20
2023-04-20T01:16:05.817Z,35.58
2023-04-20T01:18:48.641Z,35.57
2023-04-20T01:21:27.998Z,35.70
2023-04-20T01:24:01.904Z,35.74
2023-04-20T01:26:38.325Z,35.90
2023-04-20T01:29:13.989Z,36.03
2023-04-20T01:31:48.993Z,36.15
2023-04-20T01:34:24.179Z,36.23
2023-04-20T01:36:59.407Z,36.53
2023-04-20T01:39:31.588Z,36.24
2023-04-20T01:42:05.028Z,36.58
2023-04-20T01:44:39.175Z,36.90
2023-04-20T01:47:12.713Z,37.00
2023-04-20T01:49:45.290Z,37.08
2023-04-20T01:52:19.046Z,37.14
2023-04-20T01:54:53.590Z,37.33
2023-04-20T01:57:25.758Z,37.37
2023-04-20T01:59:57.925Z,37.44
2023-04-20T02:02:32.157Z,37.55
2023-04-20T02:05:06.230Z,37.72
2023-04-20T02:07:40.476Z,37.84
2023-04-20T02:10:13.974Z,37.83
2023-04-20T02:12:50.597Z,38.04
2023-04-20T02:15:26.006Z,38.39
2023-04-20T02:17:58.978Z,38.26
2023-04-20T02:20:31.645Z,38.48
2023-04-20T02:23:05.533Z,38.72
2023-04-20T02:25:39.982Z,38.73
2023-04-20T02:28:12.234Z,38.83
2023-04-20T02:30:44.442Z,39.03
2023-04-20T02:33:18.271Z,39.09
2023-04-20T02:35:50.586Z,39.22
2023-04-20T02:38:22.735Z,39.46
2023-04-20T02:40:56.631Z,39.52
2023-04-20T02:43:30.785Z,39.16
2023-04-20T02:46:03.724Z,39.63
2023-04-20T02:48:36.027Z,39.28
2023-04-20T02:51:08.566Z,39.21
2023-04-20T02:53:42.407Z,39.22
2023-04-20T02:56:19.043Z,39.04
2023-04-20T02:58:53.350Z,39.38
2023-04-20T03:01:38.690Z,38.98
2023-04-20T03:04:13.006Z,38.79
2023-04-20T03:06:46.825Z,38.79
2023-04-20T03:09:20.522Z,38.73
2023-04-20T03:12:02.308Z,38.60
2023-04-20T03:14:36.595Z,38.40
2023-04-20T03:17:08.809Z,38.61
2023-04-20T03:19:41.711Z,39.04
2023-04-20T03:22:13.869Z,38.78
2023-04-20T03:24:48.143Z,38.69
2023-04-20T03:27:22.026Z,38.57
2023-04-20T03:29:56.188Z,38.82
2023-04-20T03:32:28.812Z,38.57
2023-04-20T03:35:02.227Z,38.32
2023-04-20T03:37:34.735Z,38.24
2023-04-20T03:40:08.466Z,38.26
2023-04-20T03:42:42.071Z,38.00
2023-04-20T03:45:14.600Z,38.15
2023-04-20T03:47:46.779Z,38.29
2023-04-20T03:50:19.319Z,38.10
2023-04-20T03:52:52.931Z,38.03
2023-04-20T03:55:25.332Z,37.86
2023-04-20T03:57:59.256Z,37.73
2023-04-20T04:00:32.929Z,37.70
2023-04-20T04:03:07.640Z,37.93
2023-04-20T04:05:40.104Z,38.08
2023-04-20T04:08:12.410Z,37.73
2023-04-20T04:10:44.935Z,37.97
2023-04-20T04:13:17.288Z,37.58
2023-04-20T04:15:50.349Z,37.73
2023-04-20T04:18:23.082Z,37.59
2023-04-20T04:20:55.686Z,38.02
2023-04-20T04:23:28.375Z,37.96
2023-04-20T04:26:08.349Z,37.95
2023-04-20T04:28:42.817Z,37.48
2023-04-20T04:31:21.738Z,37.19
2023-04-20T04:33:54.629Z,37.43
2023-04-20T04:36:28.663Z,37.25
2023-04-20T04:39:02.340Z,37.34
2023-04-20T04:41:34.550Z,36.67
2023-04-20T04:44:11.279Z,36.84
2023-04-20T04:46:45.901Z,36.65
2023-04-20T04:49:19.039Z,36.55
2023-04-20T04:51:51.546Z,36.63
2023-04-20T04:54:24.784Z,36.27
2023-04-20T04:56:58.344Z,36.05
2023-04-20T04:59:31.277Z,36.11
2023-04-20T05:02:03.767Z,35.88
2023-04-20T05:04:36.293Z,35.98
2023-04-20T05:07:09.984Z,35.96
2023-04-20T05:09:42.533Z,36.10
2023-04-20T05:12:14.665Z,35.96
2023-04-20T05:14:46.744Z,35.65
2023-04-20T05:17:19.676Z,35.49
2023-04-20T05:19:51.935Z,35.07
2023-04-20T05:22:24.794Z,35.35
2023-04-20T05:24:57.303Z,35.11
2023-04-20T05:27:29.441Z,34.84
2023-04-20T05:30:13.126Z,34.94
2023-04-20T05:32:35.833Z,34.64
2023-04-20T05:35:08.683Z,34.46
2023-04-20T05:37:40.848Z,34.54
2023-04-20T05:40:13.172Z,34.47
2023-04-20T05:42:45.523Z,34.29
2023-04-20T05:45:17.925Z,34.37
2023-04-20T05:47:58.171Z,34.02
2023-04-20T05:50:31.121Z,33.65
2023-04-20T05:53:03.590Z,33.73
2023-04-20T05:55:36.241Z,33.55
2023-04-20T05:58:08.583Z,32.99
2023-04-20T06:00:40.844Z,32.70
2023-04-20T06:03:13.705Z,31.64
2023-04-20T06:05:46.314Z,30.86
2023-04-20T06:08:19.550Z,30.04
2023-04-20T06:10:59.496Z,28.77
2023-04-20T06:13:31.864Z,28.24
2023-04-20T06:16:06.208Z,28.24
2023-04-20T06:18:39.155Z,27.46
2023-04-20T06:21:12.007Z,26.26
2023-04-20T06:23:46.014Z,25.50
2023-04-20T06:26:18.945Z,25.48
2023-04-20T06:28:53.251Z,24.84
2023-04-20T06:31:25.568Z,24.83
2023-04-20T06:33:59.358Z,24.57
2023-04-20T06:36:31.939Z,23.61
2023-04-20T06:39:04.980Z,22.43
2023-04-20T06:41:37.762Z,22.38
2023-04-20T06:44:10.802Z,22.29
2023-04-20T06:46:43.071Z,21.94
2023-04-20T06:49:17.060Z,21.46
2023-04-20T06:51:49.015Z,21.02
2023-04-20T06:54:21.160Z,22.12
2023-04-20T06:56:53.413Z,19.74
2023-04-20T06:59:26.778Z,18.99
2023-04-20T07:01:59.166Z,18.67
2023-04-20T07:04:31.590Z,18.22
2023-04-20T07:07:04.588Z,17.43
2023-04-20T07:09:37.836Z,17.01
2023-04-20T07:12:11.603Z,17.44
2023-04-20T07:14:43.707Z,18.26
2023-04-20T07:17:17.495Z,18.74
2023-04-20T07:19:49.919Z,20.07
2023-04-20T07:22:23.059Z,20.65
2023-04-20T07:24:55.258Z,21.83
2023-04-20T07:27:29.669Z,22.82
2023-04-20T07:30:02.127Z,23.03
2023-04-20T07:32:37.201Z,23.78
2023-04-20T07:35:10.295Z,24.01
2023-04-20T07:37:42.873Z,24.27
2023-04-20T07:40:16.963Z,24.29
2023-04-20T07:42:49.740Z,24.40
2023-04-20T07:45:21.956Z,23.42
2023-04-20T07:47:55.282Z,23.06
2023-04-20T07:50:27.703Z,23.98
2023-04-20T07:53:00.140Z,24.94
2023-04-20T07:55:32.793Z,24.25
2023-04-20T07:58:06.811Z,24.18
2023-04-20T08:00:39.970Z,23.73
2023-04-20T08:03:12.417Z,23.40
2023-04-20T08:05:45.029Z,23.00
2023-04-20T08:08:18.158Z,22.62
2023-04-20T08:10:51.101Z,22.50
2023-04-20T08:13:23.292Z,22.47
2023-04-20T08:15:55.860Z,21.95
2023-04-20T08:18:30.012Z,22.19
2023-04-20T08:21:02.262Z,21.50
2023-04-20T08:23:34.665Z,20.82
2023-04-20T08:26:08.416Z,20.31
2023-04-20T08:28:40.488Z,19.92
2023-04-20T08:31:14.467Z,20.11
2023-04-20T08:33:47.412Z,20.23
2023-04-20T08:36:21.167Z,19.99
2023-04-20T08:38:56.135Z,20.15
2023-04-20T08:41:28.550Z,20.31
2023-04-20T08:44:00.961Z,19.85
2023-04-20T08:46:36.159Z,19.93
2023-04-20T08:49:11.885Z,19.29
2023-04-20T08:51:45.892Z,19.38
2023-04-20T08:54:18.693Z,19.40
2023-04-20T08:56:51.393Z,19.07
2023-04-20T08:59:23.677Z,19.26
2023-04-20T09:01:56.223Z,19.17
2023-04-20T09:04:28.764Z,19.39
2023-04-20T09:07:02.776Z,19.66
2023-04-20T09:09:35.316Z,19.68
2023-04-20T09:12:10.522Z,19.81
2023-04-20T09:14:47.307Z,19.94
2023-04-20T09:17:22.557Z,18.69
2023-04-20T09:19:55.453Z,18.55
2023-04-20T09:22:39.328Z,18.20
2023-04-20T09:25:20.242Z,18.29
2023-04-20T09:28:03.264Z,18.28
2023-04-20T09:30:51.904Z,18.50
2023-04-20T09:33:27.202Z,18.88
2023-04-20T09:36:07.070Z,18.79
2023-04-20T09:38:40.912Z,18.53
2023-04-20T09:41:13.790Z,18.38
2023-04-20T09:43:46.545Z,18.81
2023-04-20T09:46:18.965Z,18.48
2023-04-20T09:48:52.416Z,17.41
2023-04-20T09:51:31.964Z,17.69
2023-04-20T09:54:05.978Z,17.70
2023-04-20T09:56:39.820Z,17.73
2023-04-20T09:59:14.035Z,17.73
2023-04-20T10:01:46.384Z,17.62
2023-04-20T10:04:19.106Z,18.55
2023-04-20T10:06:58.179Z,19.04
2023-04-20T10:09:31.565Z,19.12
2023-04-20T10:12:09.171Z,19.20
2023-04-20T10:14:42.214Z,18.84
2023-04-20T10:17:14.335Z,18.52
2023-04-20T10:19:47.662Z,18.09
2023-04-20T10:22:33.999Z,17.96
2023-04-20T10:25:09.549Z,18.65
2023-04-20T10:27:42.129Z,18.16
2023-04-20T10:30:15.736Z,18.19
2023-04-20T10:32:49.006Z,17.99
2023-04-20T10:35:21.543Z,17.86
2023-04-20T10:37:53.936Z,17.83
2023-04-20T10:40:27.866Z,18.08
2023-04-20T10:42:59.901Z,17.79
2023-04-20T10:45:42.973Z,18.23
2023-04-20T10:48:17.832Z,18.33
2023-04-20T10:50:49.565Z,18.51
2023-04-20T10:53:23.877Z,19.14
2023-04-20T10:56:02.579Z,19.16
2023-04-20T10:58:34.992Z,19.37
2023-04-20T11:01:07.409Z,19.17
2023-04-20T11:03:40.492Z,18.92
2023-04-20T11:06:12.895Z,18.88
2023-04-20T11:08:45.082Z,18.54
2023-04-20T11:11:27.101Z,18.49
2023-04-20T11:14:13.235Z,18.30
2023-04-20T11:16:51.582Z,17.33
2023-04-20T11:19:29.585Z,17.49
2023-04-20T11:22:06.845Z,18.44
2023-04-20T11:24:40.900Z,18.89
2023-04-20T11:27:22.722Z,19.34
2023-04-20T11:30:00.154Z,19.37
2023-04-20T11:32:36.645Z,18.93
2023-04-20T11:35:11.357Z,19.09
2023-04-20T11:37:51.724Z,19.48
2023-04-20T11:40:25.693Z,19.71
2023-04-20T11:43:00.107Z,19.92
2023-04-20T11:45:36.192Z,19.83
2023-04-20T11:48:09.195Z,20.09
2023-04-20T11:50:42.664Z,20.13
2023-04-20T11:53:15.276Z,20.53
2023-04-20T11:55:47.780Z,20.08
2023-04-20T11:58:19.740Z,20.34
2023-04-20T12:00:52.200Z,20.20
2023-04-20T12:03:25.174Z,20.05
2023-04-20T12:05:57.416Z,20.01
2023-04-20T12:08:29.565Z,19.78
2023-04-20T12:11:01.758Z,18.87
2023-04-20T12:13:34.696Z,17.76
2023-04-20T12:16:07.737Z,16.30
2023-04-20T12:18:40.000Z,14.40
2023-04-20T12:21:13.202Z,12.60
2023-04-20T12:23:45.411Z,11.51
2023-04-20T12:26:18.077Z,10.46
2023-04-20T12:28:50.383Z,9.89
2023-04-20T12:31:26.335Z,9.12
2023-04-20T12:33:58.158Z,8.71
2023-04-20T12:36:30.453Z,8.42
2023-04-20T12:39:03.705Z,7.87
2023-04-20T12:41:36.383Z,7.47
2023-04-20T12:44:10.725Z,6.99
2023-04-20T12:46:42.532Z,6.55
2023-04-20T12:49:14.660Z,6.17
2023-04-20T12:51:46.910Z,5.79
2023-04-20T12:54:19.763Z,5.54
2023-04-20T12:56:51.979Z,5.27
2023-04-20T12:59:24.070Z,6.10
2023-04-20T13:01:56.605Z,6.99
2023-04-20T13:04:29.382Z,8.13
2023-04-20T13:07:01.578Z,9.31
2023-04-20T13:09:33.662Z,10.13
2023-04-20T13:12:06.265Z,9.88
2023-04-20T13:14:38.764Z,10.21
2023-04-20T13:17:10.838Z,10.57
2023-04-20T13:19:43.161Z,10.41
2023-04-20T13:22:18.830Z,11.10
2023-04-20T13:24:50.345Z,11.58
2023-04-20T13:27:22.440Z,11.11
2023-04-20T13:30:13.225Z,11.08
2023-04-20T13:32:45.737Z,11.59
2023-04-20T13:35:18.795Z,12.31
2023-04-20T13:37:51.259Z,13.31
2023-04-20T13:40:23.779Z,14.64
2023-04-20T13:42:57.995Z,15.78
2023-04-20T13:45:31.061Z,16.84
2023-04-20T13:48:03.407Z,17.42
2023-04-20T13:50:35.691Z,18.21
2023-04-20T13:53:08.133Z,18.79
2023-04-20T13:55:40.658Z,19.36
2023-04-20T13:58:12.658Z,20.00
2023-04-20T14:00:44.872Z,20.53
2023-04-20T14:03:19.036Z,20.84
2023-04-20T14:05:51.877Z,21.57
2023-04-20T14:08:24.312Z,21.90
2023-04-20T14:10:58.264Z,22.26
2023-04-20T14:13:30.602Z,22.67
2023-04-20T14:16:03.085Z,22.86
2023-04-20T14:18:35.841Z,23.05
2023-04-20T14:21:08.240Z,23.02
2023-04-20T14:23:40.832Z,23.23
2023-04-20T14:26:13.725Z,23.37
2023-04-20T14:28:47.438Z,23.36
2023-04-20T14:31:20.159Z,23.70
2023-04-20T14:33:52.618Z,23.19
2023-04-20T14:36:26.976Z,23.22
2023-04-20T14:39:00.941Z,23.20
2023-04-20T14:41:35.639Z,23.14
2023-04-20T14:44:08.303Z,23.02
2023-04-20T14:46:42.685Z,22.72
2023-04-20T14:49:15.297Z,23.05
2023-04-20T14:51:47.711Z,23.13
2023-04-20T14:54:21.145Z,23.25
2023-04-20T14:56:53.647Z,23.19
2023-04-20T14:59:27.217Z,23.27
2023-04-20T15:02:02.782Z,23.11
2023-04-20T15:04:33.906Z,23.26
2023-04-20T15:07:06.999Z,23.18
2023-04-20T15:09:39.735Z,23.47
2023-04-20T15:12:12.334Z,22.79
2023-04-20T15:14:44.906Z,22.80
2023-04-20T15:17:17.393Z,23.20
2023-04-20T15:19:50.527Z,22.94
2023-04-20T15:22:24.674Z,23.50
2023-04-20T15:24:57.488Z,23.36
2023-04-20T15:27:29.945Z,23.16
2023-04-20T15:30:02.080Z,23.12
2023-04-20T15:32:35.677Z,22.82
2023-04-20T15:35:08.475Z,22.84
2023-04-20T15:37:40.968Z,22.94
2023-04-20T15:40:13.977Z,23.21
2023-04-20T15:42:46.884Z,23.07
2023-04-20T15:45:20.215Z,22.91
2023-04-20T15:47:52.590Z,23.12
2023-04-20T15:50:25.261Z,23.37
2023-04-20T15:52:58.069Z,23.08
2023-04-20T15:55:32.119Z,23.31
2023-04-20T15:58:04.805Z,23.62
2023-04-20T16:00:38.521Z,23.33
2023-04-20T16:03:11.147Z,23.81
2023-04-20T16:05:43.964Z,23.56
2023-04-20T16:08:18.323Z,23.71
2023-04-20T16:10:50.490Z,23.76
2023-04-20T16:13:23.001Z,23.98
2023-04-20T16:15:56.327Z,24.33
2023-04-20T16:18:29.865Z,24.58
2023-04-20T16:21:02.346Z,24.59
2023-04-20T16:23:35.482Z,24.87
2023-04-20T16:26:08.249Z,24.99
2023-04-20T16:28:41.401Z,25.04
2023-04-20T16:31:14.087Z,25.33
2023-04-20T16:33:46.874Z,25.33
2023-04-20T16:36:19.392Z,25.29
2023-04-20T16:38:51.637Z,25.41
2023-04-20T16:41:25.492Z,25.70
2023-04-20T16:43:57.716Z,25.77
2023-04-20T16:46:29.766Z,25.96
2023-04-20T16:49:01.909Z,25.70
2023-04-20T16:51:34.722Z,26.11
2023-04-20T16:54:07.337Z,26.07
2023-04-20T16:56:40.131Z,26.23
2023-04-20T16:59:12.815Z,26.25
2023-04-20T17:01:45.421Z,26.34
2023-04-20T17:04:18.850Z,26.67
2023-04-20T17:06:51.993Z,27.01
2023-04-20T17:09:24.627Z,26.80
2023-04-20T17:11:58.791Z,26.99
2023-04-20T17:14:32.380Z,26.91
2023-04-20T17:17:04.667Z,26.72
2023-04-20T17:19:38.453Z,27.07
2023-04-20T17:22:11.162Z,26.51
2023-04-20T17:24:43.357Z,26.78
2023-04-20T17:27:16.140Z,26.95
2023-04-20T17:29:48.317Z,26.82
2023-04-20T17:32:20.649Z,26.96
2023-04-20T17:34:54.006Z,26.76
2023-04-20T17:37:26.100Z,26.75
2023-04-20T17:39:58.239Z,26.82
2023-04-20T17:42:30.303Z,26.96
2023-04-20T17:45:02.882Z,26.84
2023-04-20T17:47:35.631Z,26.92
2023-04-20T17:50:09.037Z,27.86
2023-04-20T17:52:41.887Z,27.79
2023-04-20T17:55:14.532Z,27.49
2023-04-20T17:57:46.790Z,27.58
2023-04-20T18:00:20.841Z,27.32
2023-04-20T18:02:53.185Z,27.73
2023-04-20T18:05:25.752Z,27.46
2023-04-20T18:07:57.832Z,27.34
2023-04-20T18:10:30.170Z,27.40
2023-04-20T18:13:02.732Z,27.47
2023-04-20T18:15:35.156Z,27.87
2023-04-20T18:18:07.671Z,28.25
2023-04-20T18:20:40.545Z,28.18
2023-04-20T18:23:13.963Z,28.28
2023-04-20T18:25:46.561Z,28.50
2023-04-20T18:28:19.142Z,29.02
2023-04-20T18:30:51.589Z,29.81
2023-04-20T18:33:24.997Z,29.33
2023-04-20T18:35:57.760Z,28.53
2023-04-20T18:38:30.780Z,28.86
2023-04-20T18:41:03.707Z,29.19
2023-04-20T18:43:36.717Z,28.86
2023-04-20T18:46:09.204Z,29.34
2023-04-20T18:48:41.316Z,28.93
2023-04-20T18:51:13.708Z,29.33
2023-04-20T18:53:45.952Z,29.35
2023-04-20T18:56:18.055Z,29.28
2023-04-20T18:58:50.116Z,28.74
2023-04-20T19:01:22.430Z,29.17
2023-04-20T19:03:57.100Z,29.43
2023-04-20T19:06:28.691Z,28.84
2023-04-20T19:09:01.484Z,28.43
2023-04-20T19:11:33.605Z,28.48
2023-04-20T19:14:05.978Z,28.96
2023-04-20T19:16:38.825Z,28.72
2023-04-20T19:19:11.897Z,28.30
2023-04-20T19:21:44.180Z,28.26
2023-04-20T19:24:16.882Z,27.77
2023-04-20T19:26:49.793Z,27.83
2023-04-20T19:29:21.999Z,27.82
2023-04-20T19:31:54.345Z,27.77
2023-04-20T19:34:26.324Z,27.38
2023-04-20T19:36:58.560Z,26.89
2023-04-20T19:39:32.590Z,26.86
2023-04-20T19:42:05.083Z,26.72
2023-04-20T19:44:37.186Z,27.00
2023-04-20T19:47:09.271Z,27.11
2023-04-20T19:49:41.346Z,27.13
2023-04-20T19:52:13.600Z,27.10
2023-04-20T19:54:46.125Z,26.59
2023-04-20T19:57:18.517Z,27.08
2023-04-20T19:59:53.969Z,27.26
2023-04-20T20:02:26.398Z,27.08
2023-04-20T20:04:58.626Z,27.20
2023-04-20T20:07:30.882Z,27.05
2023-04-20T20:10:03.421Z,27.13
2023-04-20T20:12:36.397Z,26.97
2023-04-20T20:15:08.653Z,27.31
2023-04-20T20:17:41.045Z,27.20
2023-04-20T20:20:13.851Z,27.28
2023-04-20T20:22:47.677Z,27.63
2023-04-20T20:25:20.008Z,27.63
2023-04-20T20:27:52.492Z,27.73
2023-04-20T20:30:25.089Z,27.80
2023-04-20T20:32:59.075Z,27.71
2023-04-20T20:35:31.813Z,27.80
2023-04-20T20:38:05.663Z,27.93
2023-04-20T20:40:39.989Z,27.94
2023-04-20T20:43:13.059Z,27.96
2023-04-20T20:45:45.273Z,28.04
2023-04-20T20:48:17.589Z,28.09
2023-04-20T20:50:52.276Z,28.14
2023-04-20T20:53:24.949Z,27.60
2023-04-20T20:55:57.259Z,27.75
2023-04-20T20:58:29.567Z,27.86
2023-04-20T21:01:02.091Z,28.17
2023-04-20T21:03:34.709Z,28.12
2023-04-20T21:06:07.264Z,28.32
2023-04-20T21:08:39.962Z,28.58
2023-04-20T21:11:12.082Z,28.60
2023-04-20T21:13:44.264Z,28.61
2023-04-20T21:16:16.429Z,28.68
2023-04-20T21:18:48.726Z,29.48
2023-04-20T21:21:21.030Z,29.08
2023-04-20T21:23:53.504Z,29.06
2023-04-20T21:26:25.698Z,28.95
2023-04-20T21:28:58.189Z,28.93
2023-04-20T21:31:30.945Z,28.80
2023-04-20T21:34:03.302Z,28.86
2023-04-20T21:36:35.632Z,29.13
2023-04-20T21:39:08.108Z,29.16
2023-04-20T21:41:40.630Z,29.34
2023-04-20T21:44:12.847Z,29.36
2023-04-20T21:46:45.120Z,29.40
2023-04-20T21:49:18.619Z,29.55
2023-04-20T21:51:51.732Z,29.67
2023-04-20T21:54:24.160Z,29.45
2023-04-20T21:56:56.170Z,29.51
2023-04-20T21:59:28.249Z,29.97
2023-04-20T22:02:00.352Z,29.77
2023-04-20T22:04:32.904Z,29.88
2023-04-20T22:07:05.033Z,30.08
2023-04-20T22:09:36.917Z,30.09
2023-04-20T22:12:09.135Z,30.13
2023-04-20T22:14:41.036Z,30.11
2023-04-20T22:17:14.480Z,30.26
2023-04-20T22:19:46.716Z,30.24
2023-04-20T22:22:18.935Z,30.10
2023-04-20T22:24:51.236Z,30.22
2023-04-20T22:27:23.514Z,30.27
2023-04-20T22:29:55.665Z,30.42
2023-04-20T22:32:27.742Z,30.44
2023-04-20T22:34:59.750Z,30.31
2023-04-20T22:37:33.556Z,30.50
2023-04-20T22:40:08.959Z,30.78
2023-04-20T22:42:41.190Z,30.61
2023-04-20T22:45:13.434Z,30.90
2023-04-20T22:47:46.314Z,31.05
2023-04-20T22:50:18.754Z,31.15
2023-04-20T22:52:52.143Z,31.11
2023-04-20T22:55:24.595Z,31.22
2023-04-20T22:57:57.183Z,30.99
2023-04-20T23:00:29.351Z,30.72
2023-04-20T23:03:02.042Z,30.92
2023-04-20T23:05:34.453Z,30.86
2023-04-20T23:08:06.881Z,31.05
2023-04-20T23:10:39.149Z,31.05
2023-04-20T23:13:12.870Z,31.12
2023-04-20T23:15:45.343Z,31.21
2023-04-20T23:18:17.449Z,31.22
2023-04-20T23:20:49.642Z,31.43
2023-04-20T23:23:25.034Z,31.57
2023-04-20T23:25:59.154Z,31.54
2023-04-20T23:28:31.667Z,31.53
2023-04-20T23:31:04.202Z,31.60
2023-04-20T23:33:36.466Z,31.60
2023-04-20T23:36:08.840Z,31.55
2023-04-20T23:38:41.321Z,31.58
2023-04-20T23:41:15.508Z,31.54
2023-04-20T23:43:47.647Z,31.87
2023-04-20T23:46:19.751Z,31.74
2023-04-20T23:48:51.863Z,31.78
2023-04-20T23:51:24.081Z,31.76
2023-04-20T23:53:56.089Z,31.73
2023-04-20T23:56:28.233Z,31.70
2023-04-20T23:59:00.978Z,31.77
